sensor_id;sensor_type;location;lat;lon;timestamp;temperature;humidity
28087;DHT22;15392;48.912;8.380;2023-07-31T00:00:27;23.70;45.00
28087;DHT22;15392;48.912;8.380;2023-07-31T00:02:53;23.70;44.90
28087;DHT22;15392;48.912;8.380;2023-07-31T00:05:21;23.70;44.90
28087;DHT22;15392;48.912;8.380;2023-07-31T00:07:47;23.70;45.00
28087;DHT22;15392;48.912;8.380;2023-07-31T00:10:13;23.70;45.00
28087;DHT22;15392;48.912;8.380;2023-07-31T00:12:39;23.70;45.00
28087;DHT22;15392;48.912;8.380;2023-07-31T00:15:06;23.70;45.00
28087;DHT22;15392;48.912;8.380;2023-07-31T00:17:32;23.70;45.10
28087;DHT22;15392;48.912;8.380;2023-07-31T00:19:58;23.70;45.00
28087;DHT22;15392;48.912;8.380;2023-07-31T00:22:24;23.70;45.00
28087;DHT22;15392;48.912;8.380;2023-07-31T00:24:49;23.60;45.00
28087;DHT22;15392;48.912;8.380;2023-07-31T00:27:15;23.60;44.90
28087;DHT22;15392;48.912;8.380;2023-07-31T00:29:41;23.60;44.90
28087;DHT22;15392;48.912;8.380;2023-07-31T00:32:07;23.60;45.00
28087;DHT22;15392;48.912;8.380;2023-07-31T00:34:32;23.60;44.90
28087;DHT22;15392;48.912;8.380;2023-07-31T00:36:59;23.60;45.00
28087;DHT22;15392;48.912;8.380;2023-07-31T00:39:25;23.60;44.90
28087;DHT22;15392;48.912;8.380;2023-07-31T00:41:52;23.50;44.90
28087;DHT22;15392;48.912;8.380;2023-07-31T00:44:19;23.50;44.90
28087;DHT22;15392;48.912;8.380;2023-07-31T00:46:45;23.50;44.80
28087;DHT22;15392;48.912;8.380;2023-07-31T00:49:10;23.50;44.90
28087;DHT22;15392;48.912;8.380;2023-07-31T00:51:36;23.40;44.90
28087;DHT22;15392;48.912;8.380;2023-07-31T00:54:02;23.40;44.90
28087;DHT22;15392;48.912;8.380;2023-07-31T00:56:28;23.40;44.80
28087;DHT22;15392;48.912;8.380;2023-07-31T00:58:55;23.40;44.80
28087;DHT22;15392;48.912;8.380;2023-07-31T01:01:21;23.40;44.70
28087;DHT22;15392;48.912;8.380;2023-07-31T01:03:47;23.40;44.80
28087;DHT22;15392;48.912;8.380;2023-07-31T01:09:06;23.30;44.70
28087;DHT22;15392;48.912;8.380;2023-07-31T01:11:45;23.40;44.80
28087;DHT22;15392;48.912;8.380;2023-07-31T01:14:13;23.40;44.60
28087;DHT22;15392;48.912;8.380;2023-07-31T01:16:39;23.40;44.80
28087;DHT22;15392;48.912;8.380;2023-07-31T01:19:05;23.30;44.80
28087;DHT22;15392;48.912;8.380;2023-07-31T01:26:51;23.30;44.60
28087;DHT22;15392;48.912;8.380;2023-07-31T01:31:51;23.30;44.70
28087;DHT22;15392;48.912;8.380;2023-07-31T01:34:19;23.30;44.70
28087;DHT22;15392;48.912;8.380;2023-07-31T01:36:48;23.30;44.70
28087;DHT22;15392;48.912;8.380;2023-07-31T01:39:14;23.30;44.60
28087;DHT22;15392;48.912;8.380;2023-07-31T01:41:41;23.30;44.70
28087;DHT22;15392;48.912;8.380;2023-07-31T01:44:06;23.30;44.70
28087;DHT22;15392;48.912;8.380;2023-07-31T01:46:33;23.30;44.80
28087;DHT22;15392;48.912;8.380;2023-07-31T01:49:00;23.30;44.90
28087;DHT22;15392;48.912;8.380;2023-07-31T01:51:26;23.30;44.80
28087;DHT22;15392;48.912;8.380;2023-07-31T01:53:52;23.30;44.80
28087;DHT22;15392;48.912;8.380;2023-07-31T01:56:17;23.30;44.80
28087;DHT22;15392;48.912;8.380;2023-07-31T01:58:43;23.30;44.80
28087;DHT22;15392;48.912;8.380;2023-07-31T02:01:08;23.30;44.90
28087;DHT22;15392;48.912;8.380;2023-07-31T02:03:34;23.30;44.80
28087;DHT22;15392;48.912;8.380;2023-07-31T02:06:00;23.30;44.70
28087;DHT22;15392;48.912;8.380;2023-07-31T02:08:26;23.20;44.50
28087;DHT22;15392;48.912;8.380;2023-07-31T02:10:51;23.20;44.70
28087;DHT22;15392;48.912;8.380;2023-07-31T02:13:17;23.30;44.80
28087;DHT22;15392;48.912;8.380;2023-07-31T02:15:43;23.20;44.80
28087;DHT22;15392;48.912;8.380;2023-07-31T02:18:08;23.20;44.80
28087;DHT22;15392;48.912;8.380;2023-07-31T02:20:34;23.20;44.80
28087;DHT22;15392;48.912;8.380;2023-07-31T02:23:00;23.20;44.70
28087;DHT22;15392;48.912;8.380;2023-07-31T02:25:26;23.20;44.80
28087;DHT22;15392;48.912;8.380;2023-07-31T02:27:52;23.20;44.90
28087;DHT22;15392;48.912;8.380;2023-07-31T02:30:18;23.20;44.70
28087;DHT22;15392;48.912;8.380;2023-07-31T02:32:43;23.20;44.80
28087;DHT22;15392;48.912;8.380;2023-07-31T02:35:09;23.20;44.80
28087;DHT22;15392;48.912;8.380;2023-07-31T02:40:59;23.20;44.90
28087;DHT22;15392;48.912;8.380;2023-07-31T02:43:25;23.20;44.70
28087;DHT22;15392;48.912;8.380;2023-07-31T02:45:51;23.20;44.70
28087;DHT22;15392;48.912;8.380;2023-07-31T02:48:18;23.10;44.70
28087;DHT22;15392;48.912;8.380;2023-07-31T02:50:44;23.10;44.80
28087;DHT22;15392;48.912;8.380;2023-07-31T02:53:10;23.10;44.80
28087;DHT22;15392;48.912;8.380;2023-07-31T02:55:36;23.10;44.80
28087;DHT22;15392;48.912;8.380;2023-07-31T02:58:02;23.10;44.80
28087;DHT22;15392;48.912;8.380;2023-07-31T03:00:28;23.10;44.80
28087;DHT22;15392;48.912;8.380;2023-07-31T03:02:53;23.10;44.80
28087;DHT22;15392;48.912;8.380;2023-07-31T03:05:19;23.10;44.90
28087;DHT22;15392;48.912;8.380;2023-07-31T03:07:44;23.10;44.80
28087;DHT22;15392;48.912;8.380;2023-07-31T03:10:10;23.10;44.90
28087;DHT22;15392;48.912;8.380;2023-07-31T03:12:36;23.10;44.90
28087;DHT22;15392;48.912;8.380;2023-07-31T03:15:02;23.10;45.00
28087;DHT22;15392;48.912;8.380;2023-07-31T03:17:27;23.10;45.10
28087;DHT22;15392;48.912;8.380;2023-07-31T03:19:53;23.10;45.00
28087;DHT22;15392;48.912;8.380;2023-07-31T03:22:19;23.10;45.10
28087;DHT22;15392;48.912;8.380;2023-07-31T03:24:44;23.10;45.10
28087;DHT22;15392;48.912;8.380;2023-07-31T03:27:10;23.10;45.10
28087;DHT22;15392;48.912;8.380;2023-07-31T03:29:36;23.10;45.10
28087;DHT22;15392;48.912;8.380;2023-07-31T03:32:01;23.10;44.90
28087;DHT22;15392;48.912;8.380;2023-07-31T03:34:28;23.10;44.90
28087;DHT22;15392;48.912;8.380;2023-07-31T03:36:54;23.10;45.00
28087;DHT22;15392;48.912;8.380;2023-07-31T03:39:20;23.10;44.90
28087;DHT22;15392;48.912;8.380;2023-07-31T03:41:46;23.10;44.90
28087;DHT22;15392;48.912;8.380;2023-07-31T03:44:12;23.10;44.90
28087;DHT22;15392;48.912;8.380;2023-07-31T03:46:37;23.10;45.00
28087;DHT22;15392;48.912;8.380;2023-07-31T03:49:03;23.10;45.00
28087;DHT22;15392;48.912;8.380;2023-07-31T03:51:29;23.10;45.00
28087;DHT22;15392;48.912;8.380;2023-07-31T03:53:54;23.10;45.10
28087;DHT22;15392;48.912;8.380;2023-07-31T03:56:20;23.10;45.10
28087;DHT22;15392;48.912;8.380;2023-07-31T03:58:46;23.10;45.20
28087;DHT22;15392;48.912;8.380;2023-07-31T04:01:11;23.10;45.10
28087;DHT22;15392;48.912;8.380;2023-07-31T04:03:37;23.10;45.20
28087;DHT22;15392;48.912;8.380;2023-07-31T04:06:03;23.10;45.80
28087;DHT22;15392;48.912;8.380;2023-07-31T04:08:29;23.10;45.20
28087;DHT22;15392;48.912;8.380;2023-07-31T04:10:55;23.10;45.20
28087;DHT22;15392;48.912;8.380;2023-07-31T04:13:21;23.10;45.20
28087;DHT22;15392;48.912;8.380;2023-07-31T04:15:48;23.10;45.20
28087;DHT22;15392;48.912;8.380;2023-07-31T04:18:15;23.00;45.20
28087;DHT22;15392;48.912;8.380;2023-07-31T04:20:41;23.00;45.20
28087;DHT22;15392;48.912;8.380;2023-07-31T04:23:07;23.00;45.30
28087;DHT22;15392;48.912;8.380;2023-07-31T04:25:32;23.00;45.30
28087;DHT22;15392;48.912;8.380;2023-07-31T04:28:00;23.00;45.30
28087;DHT22;15392;48.912;8.380;2023-07-31T04:30:26;23.00;45.40
28087;DHT22;15392;48.912;8.380;2023-07-31T04:32:52;23.00;45.40
28087;DHT22;15392;48.912;8.380;2023-07-31T04:35:17;23.00;45.40
28087;DHT22;15392;48.912;8.380;2023-07-31T04:37:43;23.00;45.40
28087;DHT22;15392;48.912;8.380;2023-07-31T04:40:11;23.00;45.40
28087;DHT22;15392;48.912;8.380;2023-07-31T04:42:37;22.90;45.40
28087;DHT22;15392;48.912;8.380;2023-07-31T04:45:03;22.90;45.40
28087;DHT22;15392;48.912;8.380;2023-07-31T04:47:29;22.90;45.40
28087;DHT22;15392;48.912;8.380;2023-07-31T04:49:56;22.90;45.50
28087;DHT22;15392;48.912;8.380;2023-07-31T04:52:21;22.90;45.50
28087;DHT22;15392;48.912;8.380;2023-07-31T04:54:47;22.90;45.50
28087;DHT22;15392;48.912;8.380;2023-07-31T04:57:13;22.80;45.50
28087;DHT22;15392;48.912;8.380;2023-07-31T04:59:39;22.80;45.60
28087;DHT22;15392;48.912;8.380;2023-07-31T05:02:05;22.80;45.60
28087;DHT22;15392;48.912;8.380;2023-07-31T05:04:32;22.80;45.70
28087;DHT22;15392;48.912;8.380;2023-07-31T05:06:57;22.80;45.70
28087;DHT22;15392;48.912;8.380;2023-07-31T05:09:23;22.80;45.70
28087;DHT22;15392;48.912;8.380;2023-07-31T05:11:49;22.80;45.70
28087;DHT22;15392;48.912;8.380;2023-07-31T05:14:14;22.70;45.70
28087;DHT22;15392;48.912;8.380;2023-07-31T05:16:41;22.80;45.70
28087;DHT22;15392;48.912;8.380;2023-07-31T05:19:07;22.70;45.70
28087;DHT22;15392;48.912;8.380;2023-07-31T05:21:32;22.70;45.70
28087;DHT22;15392;48.912;8.380;2023-07-31T05:23:58;22.70;45.70
28087;DHT22;15392;48.912;8.380;2023-07-31T05:26:24;22.70;45.70
28087;DHT22;15392;48.912;8.380;2023-07-31T05:28:49;22.70;45.70
28087;DHT22;15392;48.912;8.380;2023-07-31T05:31:15;22.70;45.80
28087;DHT22;15392;48.912;8.380;2023-07-31T05:33:41;22.70;45.90
28087;DHT22;15392;48.912;8.380;2023-07-31T05:36:06;22.70;45.90
28087;DHT22;15392;48.912;8.380;2023-07-31T05:38:32;22.70;45.90
28087;DHT22;15392;48.912;8.380;2023-07-31T05:40:58;22.80;46.00
28087;DHT22;15392;48.912;8.380;2023-07-31T05:43:23;22.80;46.00
28087;DHT22;15392;48.912;8.380;2023-07-31T05:45:49;22.80;45.90
28087;DHT22;15392;48.912;8.380;2023-07-31T05:48:16;22.80;45.90
28087;DHT22;15392;48.912;8.380;2023-07-31T05:50:43;22.80;45.90
28087;DHT22;15392;48.912;8.380;2023-07-31T05:53:09;22.80;45.80
28087;DHT22;15392;48.912;8.380;2023-07-31T05:55:35;22.90;45.90
28087;DHT22;15392;48.912;8.380;2023-07-31T05:58:01;22.90;45.80
28087;DHT22;15392;48.912;8.380;2023-07-31T06:00:27;22.90;45.80
28087;DHT22;15392;48.912;8.380;2023-07-31T06:02:54;22.90;45.80
28087;DHT22;15392;48.912;8.380;2023-07-31T06:05:20;23.00;45.70
28087;DHT22;15392;48.912;8.380;2023-07-31T06:07:45;23.00;45.60
28087;DHT22;15392;48.912;8.380;2023-07-31T06:10:11;23.10;46.30
28087;DHT22;15392;48.912;8.380;2023-07-31T06:12:37;23.10;45.70
28087;DHT22;15392;48.912;8.380;2023-07-31T06:15:03;23.10;45.70
28087;DHT22;15392;48.912;8.380;2023-07-31T06:17:29;23.10;45.70
28087;DHT22;15392;48.912;8.380;2023-07-31T06:19:55;23.20;45.70
28087;DHT22;15392;48.912;8.380;2023-07-31T06:22:21;23.20;45.70
28087;DHT22;15392;48.912;8.380;2023-07-31T06:24:47;23.20;45.70
28087;DHT22;15392;48.912;8.380;2023-07-31T06:27:13;23.30;45.70
28087;DHT22;15392;48.912;8.380;2023-07-31T06:29:38;23.30;45.60
28087;DHT22;15392;48.912;8.380;2023-07-31T06:32:04;23.30;45.50
28087;DHT22;15392;48.912;8.380;2023-07-31T06:34:30;23.40;45.60
28087;DHT22;15392;48.912;8.380;2023-07-31T06:36:56;23.40;46.10
28087;DHT22;15392;48.912;8.380;2023-07-31T06:39:22;23.50;45.60
28087;DHT22;15392;48.912;8.380;2023-07-31T06:41:48;23.50;45.60
28087;DHT22;15392;48.912;8.380;2023-07-31T06:44:13;23.50;45.60
28087;DHT22;15392;48.912;8.380;2023-07-31T06:46:39;23.60;45.60
28087;DHT22;15392;48.912;8.380;2023-07-31T06:49:05;23.70;45.60
28087;DHT22;15392;48.912;8.380;2023-07-31T06:51:31;23.70;45.50
28087;DHT22;15392;48.912;8.380;2023-07-31T06:53:57;23.70;45.40
28087;DHT22;15392;48.912;8.380;2023-07-31T06:56:23;23.80;45.40
28087;DHT22;15392;48.912;8.380;2023-07-31T06:58:49;23.80;45.30
28087;DHT22;15392;48.912;8.380;2023-07-31T07:01:14;23.90;45.40
28087;DHT22;15392;48.912;8.380;2023-07-31T07:03:40;23.90;45.30
28087;DHT22;15392;48.912;8.380;2023-07-31T07:06:06;24.00;45.30
28087;DHT22;15392;48.912;8.380;2023-07-31T07:08:32;24.00;45.20
28087;DHT22;15392;48.912;8.380;2023-07-31T07:10:57;24.00;45.20
28087;DHT22;15392;48.912;8.380;2023-07-31T07:13:23;24.00;45.20
28087;DHT22;15392;48.912;8.380;2023-07-31T07:15:49;24.00;45.20
28087;DHT22;15392;48.912;8.380;2023-07-31T07:18:16;24.10;45.10
28087;DHT22;15392;48.912;8.380;2023-07-31T07:20:52;24.10;45.10
28087;DHT22;15392;48.912;8.380;2023-07-31T07:23:19;24.10;45.10
28087;DHT22;15392;48.912;8.380;2023-07-31T07:25:45;24.20;45.10
28087;DHT22;15392;48.912;8.380;2023-07-31T07:28:11;24.20;45.10
28087;DHT22;15392;48.912;8.380;2023-07-31T07:30:37;24.30;45.10
28087;DHT22;15392;48.912;8.380;2023-07-31T07:33:03;24.30;44.90
28087;DHT22;15392;48.912;8.380;2023-07-31T07:35:29;24.30;44.90
28087;DHT22;15392;48.912;8.380;2023-07-31T07:37:55;24.30;45.00
28087;DHT22;15392;48.912;8.380;2023-07-31T07:40:20;24.40;44.90
28087;DHT22;15392;48.912;8.380;2023-07-31T07:42:46;24.40;44.90
28087;DHT22;15392;48.912;8.380;2023-07-31T07:45:12;24.50;44.70
28087;DHT22;15392;48.912;8.380;2023-07-31T07:47:40;24.50;44.70
28087;DHT22;15392;48.912;8.380;2023-07-31T07:50:06;24.50;44.60
28087;DHT22;15392;48.912;8.380;2023-07-31T07:52:32;24.50;44.40
28087;DHT22;15392;48.912;8.380;2023-07-31T07:54:58;24.60;44.60
28087;DHT22;15392;48.912;8.380;2023-07-31T07:57:24;24.60;44.50
28087;DHT22;15392;48.912;8.380;2023-07-31T07:59:49;24.70;44.50
28087;DHT22;15392;48.912;8.380;2023-07-31T08:02:15;24.70;44.70
28087;DHT22;15392;48.912;8.380;2023-07-31T08:04:41;24.80;44.80
28087;DHT22;15392;48.912;8.380;2023-07-31T08:07:06;24.80;44.80
28087;DHT22;15392;48.912;8.380;2023-07-31T08:09:32;24.90;44.90
28087;DHT22;15392;48.912;8.380;2023-07-31T08:11:58;25.00;44.80
28087;DHT22;15392;48.912;8.380;2023-07-31T08:14:28;25.00;44.30
28087;DHT22;15392;48.912;8.380;2023-07-31T08:16:54;25.10;44.10
28087;DHT22;15392;48.912;8.380;2023-07-31T08:19:20;25.10;44.00
28087;DHT22;15392;48.912;8.380;2023-07-31T08:21:46;25.20;43.60
28087;DHT22;15392;48.912;8.380;2023-07-31T08:24:12;25.20;43.70
28087;DHT22;15392;48.912;8.380;2023-07-31T08:26:40;25.30;43.60
28087;DHT22;15392;48.912;8.380;2023-07-31T08:29:06;25.30;44.10
28087;DHT22;15392;48.912;8.380;2023-07-31T08:31:31;25.40;43.80
28087;DHT22;15392;48.912;8.380;2023-07-31T08:33:57;25.40;43.40
28087;DHT22;15392;48.912;8.380;2023-07-31T08:36:23;25.40;43.50
28087;DHT22;15392;48.912;8.380;2023-07-31T08:38:48;25.50;43.70
28087;DHT22;15392;48.912;8.380;2023-07-31T08:41:15;25.60;44.50
28087;DHT22;15392;48.912;8.380;2023-07-31T08:43:48;25.80;43.80
28087;DHT22;15392;48.912;8.380;2023-07-31T08:46:15;26.00;43.10
28087;DHT22;15392;48.912;8.380;2023-07-31T08:48:44;26.10;42.10
28087;DHT22;15392;48.912;8.380;2023-07-31T08:51:10;26.20;43.60
28087;DHT22;15392;48.912;8.380;2023-07-31T08:53:36;26.40;44.00
28087;DHT22;15392;48.912;8.380;2023-07-31T08:56:02;26.40;43.60
28087;DHT22;15392;48.912;8.380;2023-07-31T08:58:29;26.50;43.20
28087;DHT22;15392;48.912;8.380;2023-07-31T09:00:57;26.50;43.50
28087;DHT22;15392;48.912;8.380;2023-07-31T09:03:25;26.70;43.70
28087;DHT22;15392;48.912;8.380;2023-07-31T09:05:51;26.80;42.30
28087;DHT22;15392;48.912;8.380;2023-07-31T09:08:18;26.90;43.90
28087;DHT22;15392;48.912;8.380;2023-07-31T09:10:46;27.00;43.70
28087;DHT22;15392;48.912;8.380;2023-07-31T09:13:12;27.30;42.20
28087;DHT22;15392;48.912;8.380;2023-07-31T09:15:39;27.50;42.10
28087;DHT22;15392;48.912;8.380;2023-07-31T09:18:06;27.70;43.40
28087;DHT22;15392;48.912;8.380;2023-07-31T09:20:32;27.90;44.30
28087;DHT22;15392;48.912;8.380;2023-07-31T09:23:10;28.10;43.10
28087;DHT22;15392;48.912;8.380;2023-07-31T09:25:37;28.30;42.80
28087;DHT22;15392;48.912;8.380;2023-07-31T09:28:07;28.50;43.00
28087;DHT22;15392;48.912;8.380;2023-07-31T09:30:50;28.60;42.00
28087;DHT22;15392;48.912;8.380;2023-07-31T09:33:23;28.80;41.80
28087;DHT22;15392;48.912;8.380;2023-07-31T09:35:49;28.90;41.60
28087;DHT22;15392;48.912;8.380;2023-07-31T09:38:15;29.00;40.20
28087;DHT22;15392;48.912;8.380;2023-07-31T09:40:47;29.00;40.90
28087;DHT22;15392;48.912;8.380;2023-07-31T09:43:20;29.00;40.30
28087;DHT22;15392;48.912;8.380;2023-07-31T09:45:47;29.00;40.70
28087;DHT22;15392;48.912;8.380;2023-07-31T09:48:14;29.00;41.90
28087;DHT22;15392;48.912;8.380;2023-07-31T09:50:43;28.90;42.00
28087;DHT22;15392;48.912;8.380;2023-07-31T09:53:12;28.90;41.50
28087;DHT22;15392;48.912;8.380;2023-07-31T09:55:41;28.90;40.40
28087;DHT22;15392;48.912;8.380;2023-07-31T09:58:08;28.80;39.20
28087;DHT22;15392;48.912;8.380;2023-07-31T10:00:53;28.80;40.80
28087;DHT22;15392;48.912;8.380;2023-07-31T10:03:38;28.70;41.30
28087;DHT22;15392;48.912;8.380;2023-07-31T10:06:04;28.70;38.90
28087;DHT22;15392;48.912;8.380;2023-07-31T10:08:30;28.60;40.70
28087;DHT22;15392;48.912;8.380;2023-07-31T10:10:59;28.60;39.50
28087;DHT22;15392;48.912;8.380;2023-07-31T10:13:25;28.50;39.70
28087;DHT22;15392;48.912;8.380;2023-07-31T10:16:11;28.50;39.80
28087;DHT22;15392;48.912;8.380;2023-07-31T10:18:50;28.40;40.60
28087;DHT22;15392;48.912;8.380;2023-07-31T10:21:17;28.40;41.10
28087;DHT22;15392;48.912;8.380;2023-07-31T10:23:43;28.40;41.80
28087;DHT22;15392;48.912;8.380;2023-07-31T10:26:09;28.40;41.20
28087;DHT22;15392;48.912;8.380;2023-07-31T10:28:36;28.40;39.50
28087;DHT22;15392;48.912;8.380;2023-07-31T10:31:03;28.40;41.10
28087;DHT22;15392;48.912;8.380;2023-07-31T10:33:29;28.40;41.50
28087;DHT22;15392;48.912;8.380;2023-07-31T10:38:42;28.40;42.40
28087;DHT22;15392;48.912;8.380;2023-07-31T10:41:08;28.40;42.00
28087;DHT22;15392;48.912;8.380;2023-07-31T10:43:36;28.40;40.70
28087;DHT22;15392;48.912;8.380;2023-07-31T10:46:08;28.40;41.40
28087;DHT22;15392;48.912;8.380;2023-07-31T10:48:37;28.40;41.70
28087;DHT22;15392;48.912;8.380;2023-07-31T10:51:07;28.40;42.50
28087;DHT22;15392;48.912;8.380;2023-07-31T10:53:35;28.40;41.80
28087;DHT22;15392;48.912;8.380;2023-07-31T10:56:02;28.40;42.80
28087;DHT22;15392;48.912;8.380;2023-07-31T10:58:30;28.40;42.20
28087;DHT22;15392;48.912;8.380;2023-07-31T11:01:00;28.40;40.20
28087;DHT22;15392;48.912;8.380;2023-07-31T11:03:45;28.40;40.20
28087;DHT22;15392;48.912;8.380;2023-07-31T11:06:17;28.40;41.90
28087;DHT22;15392;48.912;8.380;2023-07-31T11:08:45;28.30;40.20
28087;DHT22;15392;48.912;8.380;2023-07-31T11:11:13;28.30;39.80
28087;DHT22;15392;48.912;8.380;2023-07-31T11:13:44;28.20;40.80
28087;DHT22;15392;48.912;8.380;2023-07-31T11:16:20;28.20;41.00
28087;DHT22;15392;48.912;8.380;2023-07-31T11:18:48;28.20;40.90
28087;DHT22;15392;48.912;8.380;2023-07-31T11:21:15;28.20;40.90
28087;DHT22;15392;48.912;8.380;2023-07-31T11:23:48;28.20;40.90
28087;DHT22;15392;48.912;8.380;2023-07-31T11:26:15;28.20;42.20
28087;DHT22;15392;48.912;8.380;2023-07-31T11:28:42;28.20;41.20
28087;DHT22;15392;48.912;8.380;2023-07-31T11:31:10;28.20;39.70
28087;DHT22;15392;48.912;8.380;2023-07-31T11:33:36;28.20;41.90
28087;DHT22;15392;48.912;8.380;2023-07-31T11:36:02;28.20;41.00
28087;DHT22;15392;48.912;8.380;2023-07-31T11:38:28;28.20;41.10
28087;DHT22;15392;48.912;8.380;2023-07-31T11:40:55;28.20;39.50
28087;DHT22;15392;48.912;8.380;2023-07-31T11:43:23;28.20;41.20
28087;DHT22;15392;48.912;8.380;2023-07-31T11:45:50;28.20;41.40
28087;DHT22;15392;48.912;8.380;2023-07-31T11:48:23;28.10;41.10
28087;DHT22;15392;48.912;8.380;2023-07-31T11:50:52;28.10;41.50
28087;DHT22;15392;48.912;8.380;2023-07-31T11:53:21;28.10;41.90
28087;DHT22;15392;48.912;8.380;2023-07-31T11:55:49;28.20;42.30
28087;DHT22;15392;48.912;8.380;2023-07-31T11:58:15;28.20;42.10
28087;DHT22;15392;48.912;8.380;2023-07-31T12:00:41;28.30;41.60
28087;DHT22;15392;48.912;8.380;2023-07-31T12:03:07;28.30;42.10
28087;DHT22;15392;48.912;8.380;2023-07-31T12:05:33;28.30;40.60
28087;DHT22;15392;48.912;8.380;2023-07-31T12:07:59;28.30;41.70
28087;DHT22;15392;48.912;8.380;2023-07-31T12:10:29;28.30;39.90
28087;DHT22;15392;48.912;8.380;2023-07-31T12:15:30;28.40;40.20
28087;DHT22;15392;48.912;8.380;2023-07-31T12:18:18;28.40;40.50
28087;DHT22;15392;48.912;8.380;2023-07-31T12:20:45;28.40;40.70
28087;DHT22;15392;48.912;8.380;2023-07-31T12:23:16;28.40;41.40
28087;DHT22;15392;48.912;8.380;2023-07-31T12:25:43;28.40;41.40
28087;DHT22;15392;48.912;8.380;2023-07-31T12:28:09;28.40;41.30
28087;DHT22;15392;48.912;8.380;2023-07-31T12:30:38;28.50;40.10
28087;DHT22;15392;48.912;8.380;2023-07-31T12:33:15;28.50;41.00
28087;DHT22;15392;48.912;8.380;2023-07-31T12:35:45;28.50;41.90
28087;DHT22;15392;48.912;8.380;2023-07-31T12:38:12;28.60;40.60
28087;DHT22;15392;48.912;8.380;2023-07-31T12:40:39;28.70;41.00
28087;DHT22;15392;48.912;8.380;2023-07-31T12:43:06;28.70;41.70
28087;DHT22;15392;48.912;8.380;2023-07-31T12:45:32;28.80;42.20
28087;DHT22;15392;48.912;8.380;2023-07-31T12:47:58;28.80;42.60
28087;DHT22;15392;48.912;8.380;2023-07-31T12:50:25;28.90;41.60
28087;DHT22;15392;48.912;8.380;2023-07-31T12:52:51;29.00;41.80
28087;DHT22;15392;48.912;8.380;2023-07-31T12:55:18;29.00;39.50
28087;DHT22;15392;48.912;8.380;2023-07-31T12:57:44;29.10;39.70
28087;DHT22;15392;48.912;8.380;2023-07-31T13:00:10;29.10;40.10
28087;DHT22;15392;48.912;8.380;2023-07-31T13:02:36;29.10;41.00
28087;DHT22;15392;48.912;8.380;2023-07-31T13:05:02;29.10;39.90
28087;DHT22;15392;48.912;8.380;2023-07-31T13:07:28;29.10;41.50
28087;DHT22;15392;48.912;8.380;2023-07-31T13:09:53;29.10;41.40
28087;DHT22;15392;48.912;8.380;2023-07-31T13:12:19;29.10;41.40
28087;DHT22;15392;48.912;8.380;2023-07-31T13:14:45;29.10;41.20
28087;DHT22;15392;48.912;8.380;2023-07-31T13:17:10;29.10;41.60
28087;DHT22;15392;48.912;8.380;2023-07-31T13:19:36;29.20;40.80
28087;DHT22;15392;48.912;8.380;2023-07-31T13:22:02;29.20;41.90
28087;DHT22;15392;48.912;8.380;2023-07-31T13:24:29;29.20;42.40
28087;DHT22;15392;48.912;8.380;2023-07-31T13:26:55;29.20;42.00
28087;DHT22;15392;48.912;8.380;2023-07-31T13:29:22;29.20;42.20
28087;DHT22;15392;48.912;8.380;2023-07-31T13:31:47;29.20;40.80
28087;DHT22;15392;48.912;8.380;2023-07-31T13:34:13;29.20;41.60
28087;DHT22;15392;48.912;8.380;2023-07-31T13:36:39;29.20;42.10
28087;DHT22;15392;48.912;8.380;2023-07-31T13:39:04;29.20;42.10
28087;DHT22;15392;48.912;8.380;2023-07-31T13:41:30;29.20;41.80
28087;DHT22;15392;48.912;8.380;2023-07-31T13:43:56;29.30;41.80
28087;DHT22;15392;48.912;8.380;2023-07-31T13:46:21;29.30;42.80
28087;DHT22;15392;48.912;8.380;2023-07-31T13:48:47;29.30;41.60
28087;DHT22;15392;48.912;8.380;2023-07-31T13:51:13;29.30;42.10
28087;DHT22;15392;48.912;8.380;2023-07-31T13:53:38;29.30;41.10
28087;DHT22;15392;48.912;8.380;2023-07-31T13:56:04;29.30;40.50
28087;DHT22;15392;48.912;8.380;2023-07-31T13:58:30;29.20;40.20
28087;DHT22;15392;48.912;8.380;2023-07-31T14:00:56;29.20;41.20
28087;DHT22;15392;48.912;8.380;2023-07-31T14:03:22;29.20;41.20
28087;DHT22;15392;48.912;8.380;2023-07-31T14:05:48;29.20;41.70
28087;DHT22;15392;48.912;8.380;2023-07-31T14:08:14;29.10;41.60
28087;DHT22;15392;48.912;8.380;2023-07-31T14:10:40;29.10;42.10
28087;DHT22;15392;48.912;8.380;2023-07-31T14:13:05;29.10;42.40
28087;DHT22;15392;48.912;8.380;2023-07-31T14:15:31;29.10;42.30
28087;DHT22;15392;48.912;8.380;2023-07-31T14:17:57;29.10;42.30
28087;DHT22;15392;48.912;8.380;2023-07-31T14:20:23;29.10;42.50
28087;DHT22;15392;48.912;8.380;2023-07-31T14:22:49;29.00;42.00
28087;DHT22;15392;48.912;8.380;2023-07-31T14:25:15;29.00;42.50
28087;DHT22;15392;48.912;8.380;2023-07-31T14:27:40;29.00;42.60
28087;DHT22;15392;48.912;8.380;2023-07-31T14:30:07;29.00;42.70
28087;DHT22;15392;48.912;8.380;2023-07-31T14:32:34;29.00;42.80
28087;DHT22;15392;48.912;8.380;2023-07-31T14:34:59;29.00;42.70
28087;DHT22;15392;48.912;8.380;2023-07-31T14:37:25;29.00;42.40
28087;DHT22;15392;48.912;8.380;2023-07-31T14:39:52;28.90;42.90
28087;DHT22;15392;48.912;8.380;2023-07-31T14:42:18;28.90;43.00
28087;DHT22;15392;48.912;8.380;2023-07-31T14:44:44;28.90;43.10
28087;DHT22;15392;48.912;8.380;2023-07-31T14:47:12;28.90;43.10
28087;DHT22;15392;48.912;8.380;2023-07-31T14:49:38;28.90;43.00
28087;DHT22;15392;48.912;8.380;2023-07-31T14:52:03;28.90;43.20
28087;DHT22;15392;48.912;8.380;2023-07-31T14:54:29;28.90;43.10
28087;DHT22;15392;48.912;8.380;2023-07-31T14:56:55;28.90;42.90
28087;DHT22;15392;48.912;8.380;2023-07-31T14:59:21;28.90;43.20
28087;DHT22;15392;48.912;8.380;2023-07-31T15:01:46;28.90;43.00
28087;DHT22;15392;48.912;8.380;2023-07-31T15:04:12;28.90;43.20
28087;DHT22;15392;48.912;8.380;2023-07-31T15:06:38;28.90;42.50
28087;DHT22;15392;48.912;8.380;2023-07-31T15:09:03;28.90;42.90
28087;DHT22;15392;48.912;8.380;2023-07-31T15:11:29;28.90;42.90
28087;DHT22;15392;48.912;8.380;2023-07-31T15:13:55;28.80;42.90
28087;DHT22;15392;48.912;8.380;2023-07-31T15:16:21;28.80;43.20
28087;DHT22;15392;48.912;8.380;2023-07-31T15:18:47;28.80;43.00
28087;DHT22;15392;48.912;8.380;2023-07-31T15:21:13;28.80;43.00
28087;DHT22;15392;48.912;8.380;2023-07-31T15:23:38;28.80;43.40
28087;DHT22;15392;48.912;8.380;2023-07-31T15:26:04;28.80;42.90
28087;DHT22;15392;48.912;8.380;2023-07-31T15:28:30;28.80;42.60
28087;DHT22;15392;48.912;8.380;2023-07-31T15:30:56;28.90;43.20
28087;DHT22;15392;48.912;8.380;2023-07-31T15:33:22;28.90;43.00
28087;DHT22;15392;48.912;8.380;2023-07-31T15:35:48;28.80;42.70
28087;DHT22;15392;48.912;8.380;2023-07-31T15:38:13;28.80;42.60
28087;DHT22;15392;48.912;8.380;2023-07-31T15:40:39;28.80;42.80
28087;DHT22;15392;48.912;8.380;2023-07-31T15:43:05;28.80;43.00
28087;DHT22;15392;48.912;8.380;2023-07-31T15:45:31;28.80;43.00